createdAt,value
2019-04-14T00:00:38.250Z,83.80
2019-04-14T00:03:09.318Z,85.20
2019-04-14T00:05:38.783Z,85.90
2019-04-14T00:08:08.873Z,85.70
2019-04-14T00:10:38.422Z,86.80
2019-04-14T00:13:08.862Z,86.30
2019-04-14T00:15:42.711Z,87.60
2019-04-14T00:18:09.708Z,87.40
2019-04-14T00:20:39.123Z,87.30
2019-04-14T00:23:08.791Z,88.10
2019-04-14T00:25:39.060Z,88.30
2019-04-14T00:28:09.504Z,88.60
2019-04-14T00:30:40.420Z,88.90
2019-04-14T00:33:12.685Z,88.90
2019-04-14T00:36:00.273Z,89.70
2019-04-14T00:38:32.292Z,88.70
2019-04-14T00:41:07.110Z,88.30
2019-04-14T00:43:53.342Z,89.30
2019-04-14T00:46:25.379Z,89.60
2019-04-14T00:48:55.955Z,90.00
2019-04-14T00:51:26.515Z,89.90
2019-04-14T00:53:56.236Z,89.60
2019-04-14T00:56:25.916Z,90.30
2019-04-14T00:58:56.095Z,89.70
2019-04-14T01:01:26.508Z,90.60
2019-04-14T01:03:56.946Z,90.50
2019-04-14T01:06:27.298Z,90.40
2019-04-14T01:08:57.556Z,90.30
2019-04-14T01:11:27.108Z,90.50
2019-04-14T01:13:57.152Z,91.00
2019-04-14T01:16:28.037Z,90.50
2019-04-14T01:18:58.068Z,90.90
2019-04-14T01:21:28.449Z,91.10
2019-04-14T01:23:58.922Z,91.00
2019-04-14T01:26:28.878Z,91.20
2019-04-14T01:28:59.350Z,91.70
2019-04-14T01:31:29.601Z,91.60
2019-04-14T01:33:59.802Z,91.90
2019-04-14T01:36:29.866Z,91.50
2019-04-14T01:39:00.255Z,91.20
2019-04-14T01:41:30.320Z,91.90
2019-04-14T01:44:00.316Z,91.90
2019-04-14T01:46:32.582Z,92.10
2019-04-14T01:49:00.850Z,91.90
2019-04-14T01:51:33.060Z,92.20
2019-04-14T01:54:04.319Z,92.00
2019-04-14T01:56:44.984Z,92.20
2019-04-14T01:59:15.289Z,92.40
2019-04-14T02:01:46.318Z,92.60
2019-04-14T02:04:15.982Z,92.40
2019-04-14T02:06:46.223Z,92.20
2019-04-14T02:09:16.200Z,91.90
2019-04-14T02:11:46.642Z,92.50
2019-04-14T02:14:16.883Z,92.60
2019-04-14T02:16:50.868Z,92.30
2019-04-14T02:19:17.756Z,92.70
2019-04-14T02:21:47.815Z,92.40
2019-04-14T02:24:17.844Z,92.20
2019-04-14T02:26:47.976Z,92.70
2019-04-14T02:29:17.462Z,92.40
2019-04-14T02:32:21.470Z,92.30
2019-04-14T02:34:57.981Z,92.50
2019-04-14T02:39:53.896Z,92.70
2019-04-14T02:42:27.700Z,93.20
2019-04-14T02:49:50.755Z,94.00
2019-04-14T02:52:26.660Z,94.20
2019-04-14T03:02:30.391Z,94.30
2019-04-14T03:04:56.835Z,94.20
2019-04-14T03:07:34.220Z,94.60
2019-04-14T03:09:52.453Z,94.90
2019-04-14T03:15:01.478Z,94.80
2019-04-14T03:20:20.722Z,95.20
2019-04-14T03:22:43.800Z,95.20
2019-04-14T03:25:11.492Z,95.00
2019-04-14T03:33:21.630Z,95.50
2019-04-14T03:36:12.097Z,95.50
2019-04-14T03:37:59.501Z,95.20
2019-04-14T03:40:34.399Z,95.50
2019-04-14T03:45:55.211Z,95.20
2019-04-14T03:48:34.620Z,94.90
2019-04-14T03:50:37.834Z,95.30
2019-04-14T03:55:54.419Z,94.40
2019-04-14T03:58:18.657Z,94.60
2019-04-14T04:00:49.155Z,94.90
2019-04-14T04:03:19.610Z,94.80
2019-04-14T04:05:49.949Z,95.10
2019-04-14T04:08:20.131Z,95.80
2019-04-14T04:10:51.154Z,95.60
2019-04-14T04:13:21.565Z,94.80
2019-04-14T04:15:52.018Z,95.00
2019-04-14T04:18:26.577Z,95.20
2019-04-14T04:21:14.033Z,95.10
2019-04-14T04:23:47.487Z,94.90
2019-04-14T04:26:21.467Z,94.90
2019-04-14T04:28:56.232Z,94.60
2019-04-14T04:31:33.307Z,94.90
2019-04-14T04:34:10.041Z,94.70
2019-04-14T04:36:57.599Z,94.80
2019-04-14T04:39:28.588Z,94.50
2019-04-14T04:41:58.025Z,94.70
2019-04-14T04:44:27.411Z,94.70
2019-04-14T04:46:56.970Z,94.50
2019-04-14T04:49:28.159Z,93.90
2019-04-14T04:51:57.431Z,93.70
2019-04-14T04:54:27.840Z,93.80
2019-04-14T04:56:58.022Z,93.30
2019-04-14T04:59:27.753Z,94.10
2019-04-14T05:01:58.045Z,93.60
2019-04-14T05:04:28.576Z,93.90
2019-04-14T05:07:01.287Z,93.70
2019-04-14T05:09:39.167Z,93.40
2019-04-14T05:12:17.328Z,93.80
2019-04-14T05:15:01.095Z,94.60
2019-04-14T05:17:35.051Z,93.80
2019-04-14T05:20:05.280Z,93.10
2019-04-14T05:22:35.408Z,92.80
2019-04-14T05:25:06.345Z,93.80
2019-04-14T05:27:36.604Z,92.60
2019-04-14T05:30:06.986Z,92.40
2019-04-14T05:32:36.934Z,92.70
2019-04-14T05:35:07.448Z,93.60
2019-04-14T05:37:37.851Z,93.10
2019-04-14T05:40:08.151Z,94.10
2019-04-14T05:42:38.452Z,93.90
2019-04-14T05:45:08.759Z,93.70
2019-04-14T05:47:39.278Z,94.00
2019-04-14T05:50:09.511Z,93.30
2019-04-14T05:52:40.371Z,92.70
2019-04-14T05:55:11.251Z,92.60
2019-04-14T05:57:41.645Z,92.80
2019-04-14T06:00:12.851Z,92.50
2019-04-14T06:02:42.218Z,91.70
2019-04-14T06:05:12.947Z,92.60
2019-04-14T06:07:42.430Z,92.00
2019-04-14T06:10:11.848Z,90.60
2019-04-14T06:12:41.211Z,90.70
2019-04-14T06:15:10.996Z,90.10
2019-04-14T06:17:40.429Z,89.80
2019-04-14T06:20:10.128Z,89.90
2019-04-14T06:22:39.483Z,89.10
2019-04-14T06:25:09.372Z,88.60
2019-04-14T06:27:38.760Z,88.20
2019-04-14T06:30:19.096Z,88.40
2019-04-14T06:32:49.630Z,86.70
2019-04-14T06:35:26.082Z,88.60
2019-04-14T06:37:57.098Z,87.00
2019-04-14T06:40:28.090Z,87.90
2019-04-14T06:42:57.505Z,89.10
2019-04-14T06:45:26.847Z,88.50
2019-04-14T06:47:56.205Z,89.10
2019-04-14T06:50:25.548Z,87.90
2019-04-14T06:52:54.914Z,87.40
2019-04-14T06:55:24.316Z,87.10
2019-04-14T06:57:53.674Z,86.10
2019-04-14T07:00:23.037Z,86.30
2019-04-14T07:02:52.405Z,85.40
2019-04-14T07:05:21.737Z,85.20
2019-04-14T07:07:56.852Z,86.20
2019-04-14T07:10:22.160Z,86.20
2019-04-14T07:12:51.515Z,85.90
2019-04-14T07:15:20.871Z,86.50
2019-04-14T07:17:50.221Z,85.40
2019-04-14T07:20:19.583Z,84.90
2019-04-14T07:22:48.954Z,85.30
2019-04-14T07:25:18.310Z,84.60
2019-04-14T07:27:47.821Z,84.70
2019-04-14T07:30:34.091Z,85.40
2019-04-14T07:33:11.061Z,84.40
2019-04-14T07:35:51.251Z,84.40
2019-04-14T07:38:38.768Z,83.30
2019-04-14T07:41:22.073Z,83.10
2019-04-14T07:43:53.083Z,83.90
2019-04-14T07:46:30.259Z,83.90
2019-04-14T07:49:01.278Z,83.10
2019-04-14T07:51:50.546Z,82.90
2019-04-14T07:54:27.320Z,82.90
2019-04-14T07:57:14.519Z,83.20
2019-04-14T08:00:01.687Z,82.20
2019-04-14T08:02:32.751Z,81.30
2019-04-14T08:05:03.797Z,81.10
2019-04-14T08:07:33.406Z,79.60
2019-04-14T08:10:02.907Z,78.60
2019-04-14T08:12:35.062Z,80.60
2019-04-14T08:15:03.966Z,76.60
2019-04-14T08:17:33.366Z,75.00
2019-04-14T08:20:02.993Z,73.50
2019-04-14T08:22:32.354Z,73.80
2019-04-14T08:25:01.713Z,73.60
2019-04-14T08:27:31.129Z,72.90
2019-04-14T08:30:00.470Z,74.20
2019-04-14T08:32:29.965Z,72.70
2019-04-14T08:34:59.391Z,70.50
2019-04-14T08:37:28.755Z,71.10
2019-04-14T08:39:58.115Z,70.70
2019-04-14T08:42:45.345Z,70.50
2019-04-14T08:45:16.339Z,71.80
2019-04-14T08:47:50.312Z,67.70
2019-04-14T08:50:21.372Z,66.10
2019-04-14T08:52:52.414Z,66.80
2019-04-14T08:55:23.544Z,67.30
2019-04-14T08:57:57.263Z,66.80
2019-04-14T09:00:37.331Z,66.10
2019-04-14T09:03:11.833Z,62.40
2019-04-14T09:05:52.214Z,64.10
2019-04-14T09:08:23.224Z,63.60
2019-04-14T09:10:54.230Z,62.90
2019-04-14T09:13:23.602Z,62.10
2019-04-14T09:15:53.018Z,61.20
2019-04-14T09:18:22.392Z,63.00
2019-04-14T09:20:52.794Z,63.60
2019-04-14T09:23:22.486Z,64.50
2019-04-14T09:25:51.861Z,63.20
2019-04-14T09:28:21.218Z,60.50
2019-04-14T09:30:50.587Z,61.80
2019-04-14T09:33:19.999Z,62.70
2019-04-14T09:35:49.378Z,60.70
2019-04-14T09:38:18.782Z,59.60
2019-04-14T09:40:48.137Z,61.90
2019-04-14T09:43:17.519Z,59.40
2019-04-14T09:45:46.895Z,59.20
2019-04-14T09:48:16.456Z,59.40
2019-04-14T09:50:45.903Z,58.70
2019-04-14T09:53:15.270Z,59.10
2019-04-14T09:55:44.709Z,60.00
2019-04-14T09:58:14.159Z,59.40
2019-04-14T10:00:43.518Z,58.40
2019-04-14T10:03:12.965Z,57.30
2019-04-14T10:05:42.327Z,57.60
2019-04-14T10:08:11.699Z,56.60
2019-04-14T10:10:41.141Z,57.30
2019-04-14T10:13:10.608Z,56.60
2019-04-14T10:15:40.305Z,55.60
2019-04-14T10:18:09.708Z,56.30
2019-04-14T10:20:39.794Z,55.70
2019-04-14T10:23:09.170Z,56.10
2019-04-14T10:25:38.576Z,55.70
2019-04-14T10:28:08.023Z,56.90
2019-04-14T10:30:37.382Z,56.90
2019-04-14T10:33:06.760Z,56.60
2019-04-14T10:35:36.150Z,56.00
2019-04-14T10:38:05.602Z,54.80
2019-04-14T10:40:35.064Z,54.10
2019-04-14T10:43:04.698Z,53.20
2019-04-14T10:45:34.090Z,55.70
2019-04-14T10:48:03.566Z,52.10
2019-04-14T10:50:33.124Z,52.20
2019-04-14T10:53:02.580Z,53.00
2019-04-14T10:55:32.095Z,53.30
2019-04-14T10:58:01.514Z,53.80
2019-04-14T11:00:30.910Z,54.20
2019-04-14T11:03:00.301Z,53.30
2019-04-14T11:05:31.321Z,55.40
2019-04-14T11:08:00.681Z,54.50
2019-04-14T11:10:30.102Z,55.60
2019-04-14T11:12:59.519Z,55.20
2019-04-14T11:15:28.918Z,54.10
2019-04-14T11:17:58.268Z,55.70
2019-04-14T11:20:27.629Z,55.70
2019-04-14T11:23:03.172Z,55.90
2019-04-14T11:25:28.040Z,55.10
2019-04-14T11:27:57.489Z,55.50
2019-04-14T11:30:26.859Z,56.20
2019-04-14T11:33:00.617Z,55.70
2019-04-14T11:35:48.098Z,55.60
2019-04-14T11:38:22.068Z,52.90
2019-04-14T11:40:55.776Z,53.70
2019-04-14T11:43:25.154Z,54.00
2019-04-14T11:45:54.779Z,53.20
2019-04-14T11:48:24.200Z,52.90
2019-04-14T11:50:53.601Z,51.90
2019-04-14T11:53:23.374Z,52.60
2019-04-14T11:55:52.883Z,51.70
2019-04-14T11:58:22.242Z,52.70
2019-04-14T12:00:53.376Z,52.30
2019-04-14T12:03:27.135Z,51.70
2019-04-14T12:05:58.151Z,52.30
2019-04-14T12:08:32.082Z,52.40
2019-04-14T12:11:01.831Z,51.80
2019-04-14T12:13:31.191Z,52.80
2019-04-14T12:16:00.566Z,51.80
2019-04-14T12:18:29.987Z,50.40
2019-04-14T12:20:59.383Z,51.50
2019-04-14T12:23:28.778Z,50.30
2019-04-14T12:26:05.155Z,50.40
2019-04-14T12:28:29.243Z,50.30
2019-04-14T12:30:59.768Z,49.40
2019-04-14T12:33:29.383Z,50.20
2019-04-14T12:35:58.772Z,49.20
2019-04-14T12:38:28.200Z,48.60
2019-04-14T12:40:59.360Z,49.40
2019-04-14T12:43:42.528Z,50.10
2019-04-14T12:46:29.745Z,49.50
2019-04-14T12:49:16.056Z,50.20
2019-04-14T12:51:56.115Z,50.10
2019-04-14T12:54:26.756Z,49.90
2019-04-14T12:56:56.117Z,51.10
2019-04-14T12:59:25.868Z,48.20
2019-04-14T13:02:11.048Z,49.90
2019-04-14T13:04:40.181Z,50.10
2019-04-14T13:07:09.766Z,48.40
2019-04-14T13:09:39.234Z,49.10
2019-04-14T13:12:10.251Z,49.70
2019-04-14T13:14:39.794Z,49.40
2019-04-14T13:17:09.166Z,48.40
2019-04-14T13:19:38.641Z,48.90
2019-04-14T13:22:08.105Z,48.70
2019-04-14T13:24:37.487Z,50.00
2019-04-14T13:27:07.011Z,49.20
2019-04-14T13:29:36.531Z,48.10
2019-04-14T13:32:06.630Z,48.90
2019-04-14T13:34:36.137Z,48.00
2019-04-14T13:37:05.495Z,48.30
2019-04-14T13:39:34.859Z,47.30
2019-04-14T13:42:04.348Z,47.40
2019-04-14T13:44:33.741Z,49.40
2019-04-14T13:47:03.087Z,50.40
2019-04-14T13:49:32.469Z,49.80
2019-04-14T13:52:01.824Z,49.30
2019-04-14T13:54:31.257Z,49.40
2019-04-14T13:57:00.683Z,48.20
2019-04-14T13:59:30.168Z,49.70
2019-04-14T14:01:59.523Z,48.50
2019-04-14T14:04:28.882Z,48.30
2019-04-14T14:06:58.278Z,48.50
2019-04-14T14:09:27.638Z,49.60
2019-04-14T14:12:13.751Z,49.50
2019-04-14T14:14:50.453Z,48.20
2019-04-14T14:17:21.456Z,48.60
2019-04-14T14:19:55.480Z,48.40
2019-04-14T14:22:32.387Z,48.40
2019-04-14T14:25:12.639Z,48.50
2019-04-14T14:27:42.006Z,48.80
2019-04-14T14:30:13.163Z,49.50
2019-04-14T14:32:42.580Z,49.10
2019-04-14T14:35:12.118Z,48.40
2019-04-14T14:37:41.464Z,48.70
2019-04-14T14:40:11.226Z,48.90
2019-04-14T14:42:40.667Z,49.30
2019-04-14T14:45:27.600Z,50.00
2019-04-14T14:48:04.499Z,49.60
2019-04-14T14:50:38.392Z,49.80
2019-04-14T14:53:12.283Z,49.90
2019-04-14T14:55:38.918Z,50.50
2019-04-14T14:58:08.346Z,50.30
2019-04-14T15:00:37.723Z,51.00
2019-04-14T15:03:07.424Z,49.60
2019-04-14T15:05:36.792Z,50.60
2019-04-14T15:08:06.159Z,50.60
2019-04-14T15:10:35.611Z,50.20
2019-04-14T15:13:05.146Z,50.30
2019-04-14T15:15:34.586Z,50.20
2019-04-14T15:18:04.376Z,49.30
2019-04-14T15:20:33.982Z,50.80
2019-04-14T15:23:03.410Z,50.40
2019-04-14T15:25:32.846Z,50.10
2019-04-14T15:28:02.203Z,50.00
2019-04-14T15:30:31.780Z,49.50
2019-04-14T15:33:01.150Z,50.30
2019-04-14T15:35:30.559Z,50.80
2019-04-14T15:38:00.072Z,51.30
2019-04-14T15:40:29.496Z,50.50
2019-04-14T15:42:58.859Z,50.40
2019-04-14T15:45:28.333Z,51.60
2019-04-14T15:47:57.687Z,50.90
2019-04-14T15:50:27.116Z,51.00
2019-04-14T15:52:56.483Z,51.20
2019-04-14T15:55:25.837Z,51.30
2019-04-14T15:58:02.697Z,52.00
2019-04-14T16:00:33.766Z,52.20
2019-04-14T16:03:20.854Z,52.10
2019-04-14T16:06:04.134Z,51.80
2019-04-14T16:08:41.096Z,52.30
2019-04-14T16:11:12.070Z,52.70
2019-04-14T16:13:48.617Z,53.30
2019-04-14T16:16:22.343Z,52.90
2019-04-14T16:18:59.085Z,53.00
2019-04-14T16:21:28.450Z,53.20
2019-04-14T16:23:57.833Z,53.40
2019-04-14T16:26:28.903Z,53.70
2019-04-14T16:29:02.818Z,53.40
2019-04-14T16:31:50.106Z,53.80
2019-04-14T16:34:27.103Z,54.10
2019-04-14T16:36:56.905Z,54.20
2019-04-14T16:39:26.329Z,54.00
2019-04-14T16:41:55.742Z,54.40
2019-04-14T16:44:25.145Z,54.70
2019-04-14T16:46:54.523Z,54.60
2019-04-14T16:49:23.881Z,54.90
2019-04-14T16:51:54.968Z,55.10
2019-04-14T16:54:31.664Z,55.20
2019-04-14T16:57:20.803Z,54.90
2019-04-14T16:59:50.168Z,55.40
2019-04-14T17:02:19.535Z,55.30
2019-04-14T17:04:48.911Z,55.20
2019-04-14T17:07:18.286Z,55.70
2019-04-14T17:09:47.734Z,56.00
2019-04-14T17:12:17.177Z,56.20
2019-04-14T17:14:54.135Z,56.80
2019-04-14T17:17:41.310Z,56.70
2019-04-14T17:20:12.475Z,56.50
2019-04-14T17:22:46.211Z,57.20
2019-04-14T17:25:23.349Z,57.00
2019-04-14T17:27:57.123Z,57.30
2019-04-14T17:30:28.184Z,57.10
2019-04-14T17:32:59.267Z,57.90
2019-04-14T17:35:45.676Z,57.80
2019-04-14T17:38:19.596Z,57.80
2019-04-14T17:40:56.595Z,58.40
2019-04-14T17:43:27.613Z,58.10
2019-04-14T17:45:58.619Z,58.40
2019-04-14T17:48:44.916Z,59.30
2019-04-14T17:51:24.594Z,59.10
2019-04-14T17:53:55.614Z,59.30
2019-04-14T17:56:26.613Z,59.50
2019-04-14T17:59:03.630Z,59.80
2019-04-14T18:01:49.623Z,59.50
2019-04-14T18:04:32.463Z,59.10
2019-04-14T18:07:03.607Z,59.10
2019-04-14T18:09:40.248Z,59.60
2019-04-14T18:12:11.274Z,59.50
2019-04-14T18:14:42.295Z,59.60
2019-04-14T18:17:13.325Z,60.40
2019-04-14T18:19:44.331Z,60.50
2019-04-14T18:22:13.789Z,60.80
2019-04-14T18:24:43.151Z,61.10
2019-04-14T18:27:12.532Z,60.90
2019-04-14T18:29:43.671Z,61.60
2019-04-14T18:32:17.101Z,61.30
2019-04-14T18:34:50.941Z,62.40
2019-04-14T18:37:24.816Z,61.00
2019-04-14T18:39:58.753Z,61.30
2019-04-14T18:42:32.271Z,62.10
2019-04-14T18:45:18.141Z,61.80
2019-04-14T18:47:49.156Z,61.80
2019-04-14T18:50:20.753Z,62.40
2019-04-14T18:53:00.500Z,62.80
2019-04-14T18:55:43.463Z,63.00
2019-04-14T18:58:14.705Z,63.30
2019-04-14T19:00:46.021Z,63.30
2019-04-14T19:03:16.289Z,63.50
2019-04-14T19:05:46.056Z,63.40
2019-04-14T19:08:15.785Z,63.40
2019-04-14T19:10:47.120Z,64.00
2019-04-14T19:13:27.252Z,63.80
2019-04-14T19:16:01.000Z,64.30
2019-04-14T19:18:32.259Z,64.20
2019-04-14T19:21:03.441Z,63.70
2019-04-14T19:23:32.983Z,64.00
2019-04-14T19:26:02.490Z,64.40
2019-04-14T19:28:31.918Z,64.30
2019-04-14T19:31:01.300Z,64.20
2019-04-14T19:33:30.667Z,64.70
2019-04-14T19:36:00.034Z,64.50
2019-04-14T19:38:29.400Z,65.10
2019-04-14T19:40:58.937Z,65.30
2019-04-14T19:43:28.349Z,65.80
2019-04-14T19:45:57.847Z,65.70
2019-04-14T19:48:27.297Z,65.80
2019-04-14T19:50:56.661Z,66.40
2019-04-14T19:53:26.039Z,66.20
2019-04-14T19:55:55.396Z,66.20
2019-04-14T19:58:24.814Z,66.30
2019-04-14T20:00:54.171Z,67.00
2019-04-14T20:03:23.548Z,66.00
2019-04-14T20:05:52.894Z,66.60
2019-04-14T20:08:22.366Z,66.30
2019-04-14T20:10:51.735Z,65.60
2019-04-14T20:13:21.130Z,66.30
2019-04-14T20:15:57.955Z,66.50
2019-04-14T20:18:47.242Z,66.80
2019-04-14T20:21:34.555Z,67.40
2019-04-14T20:24:08.580Z,68.10
2019-04-14T20:26:48.258Z,68.50
2019-04-14T20:29:19.288Z,68.50
2019-04-14T20:32:09.727Z,68.80
2019-04-14T20:34:39.125Z,68.80
2019-04-14T20:37:09.036Z,69.30
2019-04-14T20:39:38.557Z,69.40
2019-04-14T20:42:08.334Z,69.40
2019-04-14T20:44:37.783Z,69.70
2019-04-14T20:47:08.798Z,70.10
2019-04-14T20:49:38.401Z,70.10
2019-04-14T20:52:07.928Z,70.90
2019-04-14T20:54:37.346Z,70.40
2019-04-14T20:57:06.851Z,70.40
2019-04-14T20:59:36.268Z,70.10
2019-04-14T21:02:10.263Z,69.60
2019-04-14T21:04:57.387Z,69.90
2019-04-14T21:07:31.170Z,69.70
2019-04-14T21:10:10.908Z,70.00
2019-04-14T21:12:44.652Z,70.50
2019-04-14T21:15:27.746Z,70.10
2019-04-14T21:18:01.179Z,70.60
2019-04-14T21:20:47.449Z,70.30
2019-04-14T21:23:18.453Z,70.30
2019-04-14T21:26:00.702Z,70.10
2019-04-14T21:28:49.562Z,70.20
2019-04-14T21:31:29.528Z,70.00
2019-04-14T21:34:03.488Z,70.00
2019-04-14T21:36:49.367Z,69.90
2019-04-14T21:39:36.419Z,69.50
2019-04-14T21:42:06.351Z,69.40
2019-04-14T21:44:35.765Z,69.60
2019-04-14T21:47:05.237Z,69.90
2019-04-14T21:49:34.611Z,70.10
2019-04-14T21:52:05.653Z,69.80
2019-04-14T21:54:35.022Z,70.10
2019-04-14T21:57:15.357Z,70.40
2019-04-14T22:00:02.919Z,70.50
2019-04-14T22:02:50.170Z,70.80
2019-04-14T22:05:36.320Z,72.30
2019-04-14T22:08:07.384Z,72.60
2019-04-14T22:10:40.938Z,72.70
2019-04-14T22:13:10.378Z,73.30
2019-04-14T22:15:39.722Z,73.50
2019-04-14T22:18:09.146Z,73.50
2019-04-14T22:20:38.566Z,73.60
2019-04-14T22:23:09.610Z,73.60
2019-04-14T22:25:39.017Z,73.40
2019-04-14T22:28:08.431Z,73.80
2019-04-14T22:30:37.848Z,72.50
2019-04-14T22:33:07.352Z,73.60
2019-04-14T22:35:36.677Z,74.00
2019-04-14T22:38:06.158Z,74.10
2019-04-14T22:40:35.523Z,74.20
2019-04-14T22:43:05.026Z,74.70
2019-04-14T22:45:34.615Z,74.70
2019-04-14T22:48:04.158Z,75.00
2019-04-14T22:50:33.517Z,75.00
2019-04-14T22:53:02.867Z,74.70
2019-04-14T22:55:32.548Z,74.70
2019-04-14T22:58:01.886Z,75.00
2019-04-14T23:00:32.947Z,74.60
2019-04-14T23:03:12.899Z,74.70
2019-04-14T23:06:00.074Z,75.10
2019-04-14T23:08:45.850Z,73.60
2019-04-14T23:11:33.082Z,73.50
2019-04-14T23:14:20.322Z,74.50
2019-04-14T23:17:07.223Z,74.90
2019-04-14T23:19:44.146Z,75.20
2019-04-14T23:22:15.295Z,75.70
2019-04-14T23:24:46.274Z,75.50
2019-04-14T23:27:15.631Z,75.80
2019-04-14T23:29:44.988Z,76.20
2019-04-14T23:32:14.315Z,76.60
2019-04-14T23:34:43.662Z,76.50
2019-04-14T23:37:13.008Z,76.60
2019-04-14T23:39:42.442Z,76.80
2019-04-14T23:42:11.792Z,76.60
2019-04-14T23:44:42.054Z,77.10
2019-04-14T23:47:11.390Z,76.70
2019-04-14T23:49:40.749Z,77.20
2019-04-14T23:52:10.114Z,77.40
2019-04-14T23:54:39.532Z,77.30
2019-04-14T23:57:08.871Z,77.60
2019-04-14T23:59:38.236Z,78.00
